Time;durP1;ratioP1;P1;durP2;ratioP2;P2;SDS_P1;SDS_P2;PMS_P1;PMS_P2;Temp;Humidity;BMP_temperature;BMP_pressure;BME280_temperature;BME280_humidity;BME280_pressure;Samples;Min_cycle;Max_cycle;Signal;HPM_P1;HPM_P2
2022/02/17 05:27:55;;;;;;;;;;;11.20;97.20;;;9.58;88.38;98735.66;4560401;22;20012;-92
2022/02/17 05:30:25;;;;;;;;;;;11.20;96.50;;;9.63;89.15;98743.94;5051546;28;19959;-86
2022/02/17 05:33:07;;;;;;;;;;;11.20;97.60;;;9.58;86.81;98741.91;5033954;28;20032;-84
2022/02/17 05:35:54;;;;;;;;;;;11.20;96.10;;;9.63;86.80;98749.38;5034260;28;19999;-84
2022/02/17 05:38:39;;;;;;;;;;;11.20;96.10;;;9.62;86.78;98753.16;5049656;28;19936;-84
2022/02/17 05:41:35;;;;;;;;;;;11.20;95.50;;;9.62;86.57;98752.34;5051933;28;20304;-84
2022/02/17 05:44:04;;;;;;;;;;;11.20;96.70;;;9.66;87.20;98769.84;5051706;28;19990;-84
2022/02/17 05:46:32;;;;;;;;;;;11.20;96.30;;;9.65;86.58;98763.56;5047898;28;19933;-83
2022/02/17 05:49:03;;;;;;;;;;;11.20;96.00;;;9.62;87.13;98752.34;5050291;28;20401;-84
2022/02/17 05:51:30;;;;;;;;;;;11.20;96.10;;;9.65;86.39;98768.19;5051855;28;19925;-84
2022/02/17 05:53:59;;;;;;;;;;;11.20;96.40;;;9.65;86.36;98788.00;5051333;28;20037;-86
2022/02/17 05:56:26;;;;;;;;;;;11.20;95.70;;;9.65;87.52;98763.56;5051948;28;19935;-85
2022/02/17 05:58:53;;;;;;;;;;;11.20;96.30;;;9.66;87.03;98786.97;5049333;23;19995;-87
2022/02/17 06:01:21;;;;;;;;;;;11.20;97.00;;;9.66;85.78;98772.56;5028395;28;19940;-87
2022/02/17 06:03:49;;;;;;;;;;;11.40;95.30;;;9.63;85.03;98784.69;5030646;28;19987;-88
2022/02/17 06:06:16;;;;;;;;;;;11.20;94.70;;;9.62;85.26;98788.47;5030215;28;19972;-87
2022/02/17 06:08:43;;;;;;;;;;;11.20;95.70;;;9.63;85.86;98800.16;5045611;28;19929;-86
2022/02/17 06:11:10;;;;;;;;;;;11.20;95.70;;;9.59;85.16;98800.63;5048351;28;19935;-85
2022/02/17 06:13:37;;;;;;;;;;;11.20;95.20;;;9.62;85.65;98788.47;5049543;28;19928;-84
2022/02/17 06:16:04;;;;;;;;;;;11.20;95.30;;;9.62;85.71;98823.78;5043878;28;20043;-84
2022/02/17 06:18:33;;;;;;;;;;;11.20;95.60;;;9.59;85.51;98813.34;5049108;28;19975;-85
2022/02/17 06:21:00;;;;;;;;;;;11.20;95.10;;;9.59;85.75;98811.47;5049100;28;19935;-84
2022/02/17 06:23:27;;;;;;;;;;;11.20;94.90;;;9.59;86.05;98816.91;5049159;28;20023;-84
2022/02/17 06:25:54;;;;;;;;;;;11.20;96.10;;;9.58;86.47;98814.41;5032280;28;19925;-83
2022/02/17 06:28:21;;;;;;;;;;;11.20;96.40;;;9.54;85.37;98821.34;5045590;28;20031;-83
2022/02/17 06:30:48;;;;;;;;;;;11.10;95.40;;;9.51;85.52;98828.03;5050313;28;20016;-83
2022/02/17 06:33:15;;;;;;;;;;;11.10;95.20;;;9.46;84.88;98829.72;5050006;28;19936;-88
2022/02/17 06:35:44;;;;;;;;;;;11.10;95.10;;;9.50;84.70;98842.66;5016215;28;20352;-82
2022/02/17 06:38:11;;;;;;;;;;;11.10;94.40;;;9.51;84.10;98844.31;5038464;28;19935;-83
2022/02/17 06:40:38;;;;;;;;;;;11.10;93.90;;;9.48;84.63;98860.22;5044146;28;19960;-83
2022/02/17 06:43:06;;;;;;;;;;;11.10;95.40;;;9.47;84.00;98858.56;5048130;28;19928;-83
2022/02/17 06:45:34;;;;;;;;;;;11.00;93.90;;;9.44;84.34;98845.41;5049298;28;20329;-83
2022/02/17 06:48:04;;;;;;;;;;;11.00;95.00;;;9.37;84.13;98870.72;5049922;28;20028;-83
2022/02/17 06:50:32;;;;;;;;;;;11.00;93.80;;;9.26;84.05;98867.88;5050040;28;20001;-82
2022/02/17 06:53:01;;;;;;;;;;;11.00;94.80;;;9.27;83.52;98892.09;5047251;28;20019;-83
2022/02/17 06:55:28;;;;;;;;;;;11.00;93.60;;;9.24;82.61;98902.53;5047885;28;20460;-84
2022/02/17 06:57:57;;;;;;;;;;;10.90;93.40;;;9.29;82.90;98908.13;5047712;28;20343;-85
2022/02/17 07:00:24;;;;;;;;;;;10.90;92.40;;;9.29;82.34;98910.84;5049776;28;19928;-85
2022/02/17 07:02:52;;;;;;;;;;;10.90;92.90;;;9.31;82.68;98909.59;5049432;28;19967;-85
2022/02/17 07:05:20;;;;;;;;;;;11.00;93.00;;;9.29;81.74;98949.72;5047530;28;19925;-84
2022/02/17 07:07:47;;;;;;;;;;;11.00;92.70;;;9.29;79.64;98933.44;5049211;28;20023;-84
2022/02/17 07:10:54;;;;;;;;;;;10.90;91.50;;;9.27;80.17;98943.66;5057423;28;19925;-84
2022/02/17 07:13:03;;;;;;;;;;;10.90;91.70;;;9.24;79.92;98962.25;5049106;28;19928;-85
2022/02/17 07:15:34;;;;;;;;;;;10.90;91.00;;;9.24;80.35;98975.84;5048421;28;19978;-84
2022/02/17 07:18:04;;;;;;;;;;;10.90;91.00;;;9.23;80.59;98977.69;5047176;28;20282;-85
2022/02/17 07:20:31;;;;;;;;;;;10.90;91.30;;;9.23;79.92;98996.69;5063050;28;20434;-84
2022/02/17 07:22:59;;;;;;;;;;;10.90;92.20;;;9.27;79.18;99005.25;5047285;28;20024;-84
2022/02/17 07:25:27;;;;;;;;;;;10.90;90.50;;;9.27;78.94;99003.38;5047040;28;20363;-85
2022/02/17 07:27:54;;;;;;;;;;;10.90;90.80;;;9.26;79.05;99037.00;5045307;28;19936;-85
2022/02/17 07:30:22;;;;;;;;;;;10.90;91.50;;;9.23;77.94;99010.28;5038795;28;19929;-84
2022/02/17 07:32:49;;;;;;;;;;;10.80;88.80;;;9.23;76.96;99021.13;5047799;28;20016;-84
2022/02/17 07:35:16;;;;;;;;;;;10.80;89.30;;;9.18;77.33;99039.94;5044220;28;20023;-84
2022/02/17 07:37:45;;;;;;;;;;;10.80;89.30;;;9.25;77.07;99077.91;5036569;28;19933;-84
2022/02/17 07:40:14;;;;;;;;;;;10.80;88.40;;;9.22;76.63;99052.03;5039766;28;19959;-84
2022/02/17 07:42:45;;;;;;;;;;;10.80;89.80;;;9.20;75.42;99068.53;5046908;28;19924;-84
2022/02/17 07:45:12;;;;;;;;;;;10.80;88.80;;;9.20;75.00;99075.84;5044235;28;20359;-84
2022/02/17 07:47:46;;;;;;;;;;;10.80;87.90;;;9.24;75.81;99065.41;5048877;28;19956;-84
2022/02/17 07:50:15;;;;;;;;;;;10.80;88.00;;;9.28;77.05;99072.91;5058780;28;20279;-85
2022/02/17 07:52:42;;;;;;;;;;;10.80;89.00;;;9.20;75.61;99075.84;5046197;28;19994;-85
2022/02/17 07:55:13;;;;;;;;;;;10.80;88.10;;;9.19;75.49;99058.75;5043847;28;19952;-84
2022/02/17 07:57:41;;;;;;;;;;;10.80;87.50;;;9.13;76.31;99054.13;5048456;28;20031;-85
2022/02/17 08:00:11;;;;;;;;;;;10.70;88.30;;;9.15;75.91;99083.78;5041202;28;19935;-84
2022/02/17 08:02:42;;;;;;;;;;;10.80;89.60;;;9.12;75.81;99086.91;5048472;28;19967;-84
2022/02/17 08:05:10;;;;;;;;;;;10.80;87.90;;;9.10;76.15;99097.16;5046302;28;19988;-84
2022/02/17 08:07:38;;;;;;;;;;;10.80;89.00;;;9.12;75.33;99085.06;5046686;28;20096;-85
2022/02/17 08:10:07;;;;;;;;;;;10.80;88.50;;;9.20;76.49;99089.44;5048082;28;19932;-84
2022/02/17 08:12:38;;;;;;;;;;;10.80;89.20;;;9.21;77.09;99091.09;5048754;28;19939;-85
2022/02/17 08:15:09;;;;;;;;;;;10.80;89.40;;;9.13;77.17;99110.31;5044849;28;20426;-86
2022/02/17 08:17:37;;;;;;;;;;;10.80;89.60;;;9.14;76.58;99109.28;5028247;28;19937;-85
2022/02/17 08:20:06;;;;;;;;;;;10.80;88.70;;;9.14;78.23;99109.28;5035550;28;19933;-84
2022/02/17 08:22:34;;;;;;;;;;;10.80;89.60;;;9.11;79.02;99120.53;5037539;28;19982;-84
2022/02/17 08:25:02;;;;;;;;;;;10.80;90.50;;;9.13;77.75;99102.16;5043130;28;19928;-84
2022/02/17 08:27:31;;;;;;;;;;;10.80;89.40;;;9.11;78.19;99115.13;5043764;28;20393;-84
2022/02/17 08:29:58;;;;;;;;;;;10.80;90.00;;;9.13;77.82;99126.59;5033572;28;19944;-85
2022/02/17 08:32:27;;;;;;;;;;;10.80;88.90;;;9.19;76.01;99126.59;5038464;28;19929;-85
2022/02/17 08:34:56;;;;;;;;;;;10.80;87.70;;;9.19;76.02;99150.19;5058229;28;19941;-86
2022/02/17 08:37:24;;;;;;;;;;;10.80;88.30;;;9.26;77.24;99161.03;5042043;28;20548;-85
2022/02/17 08:39:51;;;;;;;;;;;10.80;89.70;;;9.29;76.90;99163.31;5051081;28;19961;-86
2022/02/17 08:42:20;;;;;;;;;;;10.80;89.10;;;9.23;77.83;99183.16;5044050;28;19940;-85
2022/02/17 08:44:47;;;;;;;;;;;10.80;89.30;;;9.15;78.97;99186.94;5045531;28;19929;-85
2022/02/17 08:47:17;;;;;;;;;;;10.80;90.80;;;9.12;78.30;99187.34;5046330;28;19929;-84
2022/02/17 08:49:44;;;;;;;;;;;10.80;90.20;;;9.09;78.70;99199.44;5043117;28;20341;-85
2022/02/17 08:52:13;;;;;;;;;;;10.80;90.00;;;9.13;77.66;99194.44;5027540;28;19951;-85
2022/02/17 08:54:55;;;;;;;;;;;10.70;89.20;;;9.11;76.44;99223.69;5032387;28;19976;-85
2022/02/17 08:57:22;;;;;;;;;;;10.70;87.70;;;9.07;74.49;99217.00;5047225;28;19928;-84
2022/02/17 08:59:49;;;;;;;;;;;10.70;87.20;;;9.05;74.94;99213.66;5046895;28;19929;-85
2022/02/17 09:02:16;;;;;;;;;;;10.70;87.10;;;9.07;75.89;99225.13;5052868;28;19929;-84
2022/02/17 09:04:44;;;;;;;;;;;10.70;87.60;;;9.16;74.98;99215.75;5045877;28;19950;-86
2022/02/17 09:07:11;;;;;;;;;;;10.70;87.80;;;9.21;75.19;99218.66;5047823;28;19925;-84
2022/02/17 09:09:39;;;;;;;;;;;10.80;88.40;;;9.31;75.17;99224.53;5064443;28;20021;-84
2022/02/17 09:12:08;;;;;;;;;;;10.80;87.50;;;9.29;74.67;99232.06;5052237;28;20282;-84
2022/02/17 09:14:35;;;;;;;;;;;10.80;87.40;;;9.22;75.94;99250.22;5042813;28;19932;-84
2022/02/17 09:17:03;;;;;;;;;;;10.80;88.40;;;9.06;77.12;99258.72;5047323;28;19929;-83
2022/02/17 09:19:34;;;;;;;;;;;10.80;89.10;;;8.88;77.87;99265.59;5055162;28;19935;-87
2022/02/17 09:22:01;;;;;;;;;;;10.70;89.50;;;8.68;79.09;99283.66;5046417;28;19931;-85
2022/02/17 09:24:28;;;;;;;;;;;10.50;90.60;;;8.61;80.01;99279.06;5051865;28;19936;-84
2022/02/17 09:26:57;;;;;;;;;;;10.50;91.00;;;8.59;80.67;99291.97;5050927;28;19929;-84
2022/02/17 09:29:24;;;;;;;;;;;10.50;91.80;;;8.58;81.36;99287.59;5039727;28;20035;-86
2022/02/17 09:31:51;;;;;;;;;;;10.50;91.40;;;8.69;80.70;99286.19;5048752;28;20511;-86
2022/02/17 09:34:18;;;;;;;;;;;10.50;91.80;;;8.79;81.47;99296.63;5050159;28;19970;-88
2022/02/17 09:36:45;;;;;;;;;;;10.50;91.90;;;8.85;80.32;99295.81;5052180;28;19932;-86
2022/02/17 09:39:13;;;;;;;;;;;10.50;91.90;;;8.87;79.58;99307.34;5048117;28;19929;-87
2022/02/17 09:41:40;;;;;;;;;;;10.60;90.80;;;8.85;79.09;99322.94;5040500;28;20389;-86
2022/02/17 09:44:12;;;;;;;;;;;10.50;90.10;;;8.91;79.42;99315.88;5048015;28;19925;-85
2022/02/17 09:46:45;;;;;;;;;;;10.60;90.90;;;9.09;76.62;99332.44;5050874;28;19925;-84
2022/02/17 09:49:16;;;;;;;;;;;10.70;88.90;;;9.17;75.97;99334.13;5040494;28;19971;-86
2022/02/17 09:51:44;;;;;;;;;;;10.70;88.70;;;9.32;75.26;99351.06;5049060;28;19986;-86
2022/02/17 09:54:11;;;;;;;;;;;10.80;87.80;;;9.42;75.02;99328.13;5048561;28;19925;-85
2022/02/17 09:56:40;;;;;;;;;;;10.90;87.10;;;9.44;75.23;99343.16;5049503;28;19932;-87
2022/02/17 09:59:09;;;;;;;;;;;10.90;87.30;;;9.42;75.00;99334.38;5039372;28;19935;-86
2022/02/17 10:01:37;;;;;;;;;;;10.90;87.30;;;9.47;74.87;99363.66;5046466;28;20008;-86
2022/02/17 10:04:15;;;;;;;;;;;11.00;87.90;;;9.48;73.56;99362.59;5047846;28;20028;-86
2022/02/17 10:06:43;;;;;;;;;;;11.00;85.90;;;9.47;74.35;99375.34;5039153;28;19936;-80
2022/02/17 10:09:11;;;;;;;;;;;11.00;86.60;;;9.54;74.22;99369.94;5059277;28;20397;-84
2022/02/17 10:11:40;;;;;;;;;;;11.10;87.50;;;9.52;72.64;99363.84;5043085;28;19929;-81
2022/02/17 10:14:09;;;;;;;;;;;11.10;86.10;;;9.58;73.97;99373.91;5046916;28;19928;-83
2022/02/17 10:16:57;;;;;;;;;;;11.10;85.80;;;9.66;72.52;99378.31;5048687;28;19925;-83
2022/02/17 10:19:27;;;;;;;;;;;11.10;85.40;;;9.70;71.85;99380.41;5059983;28;20381;-83
2022/02/17 10:22:02;;;;;;;;;;;11.20;85.40;;;9.69;71.58;99394.19;5052324;28;19925;-83
2022/02/17 10:24:31;;;;;;;;;;;11.20;85.40;;;9.69;72.45;99410.47;5050613;28;19936;-82
2022/02/17 10:27:02;;;;;;;;;;;11.20;86.70;;;9.68;70.90;99409.66;5050356;28;19932;-83
2022/02/17 10:29:30;;;;;;;;;;;11.20;83.40;;;9.58;70.50;99410.06;5051975;28;19940;-83
2022/02/17 10:32:06;;;;;;;;;;;11.20;84.30;;;9.49;71.99;99400.41;5047847;28;20373;-82
2022/02/17 10:34:34;;;;;;;;;;;11.20;85.70;;;9.44;71.62;99416.47;5049856;28;19928;-82
2022/02/17 10:37:01;;;;;;;;;;;11.10;83.90;;;9.44;70.91;99416.47;5050670;28;19928;-82
2022/02/17 10:39:33;;;;;;;;;;;11.10;84.40;;;9.37;70.41;99440.09;5048360;28;19925;-82
2022/02/17 10:42:04;;;;;;;;;;;11.00;83.50;;;9.35;70.09;99443.00;5045556;28;19928;-82
2022/02/17 10:44:34;;;;;;;;;;;11.00;82.70;;;9.40;68.71;99453.25;5037348;28;19978;-82
2022/02/17 10:47:33;;;;;;;;;;;11.00;82.90;;;9.44;69.32;99456.38;5047668;28;19932;-84
2022/02/17 10:50:06;;;;;;;;;;;11.00;82.60;;;9.46;66.15;99457.03;5054414;28;19925;-82
2022/02/17 10:52:36;;;;;;;;;;;11.00;80.00;;;9.33;66.97;99455.13;5048704;28;20388;-83
2022/02/17 10:55:14;;;;;;;;;;;11.00;80.50;;;9.34;67.33;99463.03;5044423;28;19975;-84
2022/02/17 10:57:41;;;;;;;;;;;11.00;80.20;;;9.34;67.39;99468.47;5045102;28;19929;-86
2022/02/17 11:00:15;;;;;;;;;;;11.00;81.00;;;9.23;66.89;99466.31;5061697;28;19932;-86
2022/02/17 11:02:43;;;;;;;;;;;10.90;80.30;;;9.14;66.52;99473.81;5056532;28;20377;-86
2022/02/17 11:05:11;;;;;;;;;;;10.90;80.70;;;9.20;66.90;99485.75;5042332;28;19939;-86
2022/02/17 11:07:39;;;;;;;;;;;10.90;80.90;;;9.30;67.17;99483.50;5039739;28;19933;-85
2022/02/17 11:10:08;;;;;;;;;;;10.90;79.90;;;9.38;67.44;99488.75;5056267;28;19937;-86
2022/02/17 11:12:38;;;;;;;;;;;11.00;80.30;;;9.54;66.34;99475.88;5039363;28;19932;-86
2022/02/17 11:15:06;;;;;;;;;;;11.00;79.40;;;9.64;66.82;99491.78;5045125;28;20290;-87
2022/02/17 11:17:38;;;;;;;;;;;11.10;80.40;;;9.68;65.69;99490.31;5044221;28;19933;-88
2022/02/17 11:20:11;;;;;;;;;;;11.20;80.70;;;9.65;67.21;99491.56;5045530;28;19932;-87
2022/02/17 11:22:41;;;;;;;;;;;11.20;81.20;;;9.68;64.64;99496.59;5034290;28;19925;-87
2022/02/17 11:25:10;;;;;;;;;;;11.20;79.80;;;9.74;65.00;99498.47;5048160;28;20059;-87
2022/02/17 11:27:59;;;;;;;;;;;11.30;79.40;;;9.79;64.45;99501.44;5046266;28;19925;-86
2022/02/17 11:30:31;;;;;;;;;;;11.30;77.80;;;9.80;64.44;99510.41;5042500;28;19933;-87
2022/02/17 11:33:31;;;;;;;;;;;11.30;79.10;;;9.92;64.30;99492.50;5051260;28;19939;-88
2022/02/17 11:36:21;;;;;;;;;;;11.40;79.20;;;9.98;63.74;99498.97;4969470;28;19933;-86
2022/02/17 11:38:50;;;;;;;;;;;11.40;77.80;;;10.13;63.48;99502.34;5037845;28;19926;-84
2022/02/17 11:41:18;;;;;;;;;;;11.50;76.90;;;10.16;64.01;99510.06;5045789;28;19924;-85
2022/02/17 11:43:48;;;;;;;;;;;11.50;78.50;;;10.18;63.93;99512.59;5042097;28;19936;-85
2022/02/17 11:46:16;;;;;;;;;;;11.50;77.00;;;10.14;64.15;99505.91;5042661;28;19935;-85
2022/02/17 11:48:48;;;;;;;;;;;11.50;77.40;;;10.18;66.46;99502.59;5053419;28;19977;-85
2022/02/17 11:51:21;;;;;;;;;;;11.50;79.90;;;10.28;64.61;99523.06;5040713;28;20553;-85
2022/02/17 11:53:49;;;;;;;;;;;11.60;78.80;;;10.33;65.58;99512.44;5046434;28;19925;-85
2022/02/17 11:56:36;;;;;;;;;;;11.70;79.60;;;10.29;65.41;99513.88;5047405;28;20609;-83
2022/02/17 11:59:19;;;;;;;;;;;11.70;78.10;;;10.28;65.34;99528.50;5050594;22;20297;-83
2022/02/17 12:01:47;;;;;;;;;;;11.70;78.50;;;10.25;65.00;99521.59;5045315;28;19956;-88
2022/02/17 12:04:18;;;;;;;;;;;11.70;78.70;;;10.22;65.06;99513.03;5043934;28;19936;-88
2022/02/17 12:06:48;;;;;;;;;;;11.70;78.70;;;10.17;65.23;99544.41;5046133;28;20274;-88
2022/02/17 12:09:37;;;;;;;;;;;11.70;79.10;;;10.10;65.75;99540.00;5045320;28;19933;-86
2022/02/17 12:12:37;;;;;;;;;;;11.70;79.10;;;10.04;65.41;99547.09;5039002;28;20052;-88
2022/02/17 12:15:06;;;;;;;;;;;11.60;79.30;;;9.92;64.86;99524.28;5042311;28;19933;-88
2022/02/17 12:17:35;;;;;;;;;;;11.50;78.40;;;9.86;64.21;99552.25;5050889;28;19939;-87
2022/02/17 12:20:06;;;;;;;;;;;11.50;78.60;;;9.82;64.83;99553.69;5049768;28;19928;-87
2022/02/17 12:22:34;;;;;;;;;;;11.50;79.20;;;9.68;63.20;99550.94;5054251;28;20381;-87
2022/02/17 12:25:15;;;;;;;;;;;11.40;76.70;;;9.61;62.78;99552.78;5053047;28;20022;-88
2022/02/17 12:27:48;;;;;;;;;;;11.40;76.50;;;9.57;63.71;99543.34;5049659;28;20009;-88
2022/02/17 12:30:23;;;;;;;;;;;11.30;77.70;;;9.47;63.31;99568.16;5049074;28;20378;-89
2022/02/17 12:33:03;;;;;;;;;;;11.20;75.50;;;9.39;63.13;99555.59;5048504;28;19937;-88
2022/02/17 12:35:57;;;;;;;;;;;11.10;76.20;;;9.27;64.83;99538.22;5055924;28;19994;-88
2022/02/17 12:38:26;;;;;;;;;;;11.10;77.80;;;9.23;64.36;99550.47;5042300;28;19951;-88
2022/02/17 12:40:53;;;;;;;;;;;11.10;79.30;;;9.19;65.63;99536.50;5037507;28;19955;-88
2022/02/17 12:43:29;;;;;;;;;;;11.00;78.80;;;9.25;66.25;99537.53;5055756;28;19959;-89
2022/02/17 12:45:58;;;;;;;;;;;11.00;79.30;;;9.39;65.83;99533.88;5041267;28;19933;-89
2022/02/17 12:48:29;;;;;;;;;;;11.10;80.00;;;9.50;66.43;99520.75;5028116;28;19929;-87
2022/02/17 12:50:57;;;;;;;;;;;11.10;80.60;;;9.56;66.92;99530.84;5030320;28;19938;-89
2022/02/17 12:53:25;;;;;;;;;;;11.10;81.00;;;9.48;64.84;99517.41;5038982;28;19936;-89
2022/02/17 12:55:54;;;;;;;;;;;11.10;78.90;;;9.45;64.85;99528.69;5046864;28;19960;-87
2022/02/17 12:58:42;;;;;;;;;;;11.10;79.70;;;9.42;66.25;99539.94;5047554;28;19935;-87
2022/02/17 13:01:20;;;;;;;;;;;11.10;80.40;;;9.46;64.70;99539.34;5044568;28;20510;-87
2022/02/17 13:03:50;;;;;;;;;;;11.00;77.60;;;9.45;65.67;99551.25;5044908;28;19924;-91
2022/02/17 13:06:25;;;;;;;;;;;11.00;79.70;;;9.47;65.10;99559.19;5058869;28;20396;-92
2022/02/17 13:11:34;;;;;;;;;;;11.10;77.70;;;9.46;63.50;99546.63;5061440;22;19929;-87
2022/02/17 13:14:04;;;;;;;;;;;11.10;77.40;;;9.41;62.70;99535.56;5048628;28;19943;-84
2022/02/17 13:16:32;;;;;;;;;;;11.10;77.30;;;9.39;62.58;99536.59;5051886;28;19929;-82
2022/02/17 13:18:59;;;;;;;;;;;11.00;76.00;;;9.36;62.95;99547.84;5023544;28;19956;-83
2022/02/17 13:21:28;;;;;;;;;;;11.00;75.80;;;9.51;62.48;99552.31;5045844;28;19929;-83
2022/02/17 13:24:11;;;;;;;;;;;11.10;75.30;;;9.64;63.54;99538.78;5054002;28;19935;-83
2022/02/17 13:26:39;;;;;;;;;;;11.20;77.70;;;9.81;62.95;99539.28;5042342;28;19955;-83
2022/02/17 13:29:08;;;;;;;;;;;11.20;76.90;;;10.04;63.76;99552.53;5034081;28;20536;-85
2022/02/17 13:31:37;;;;;;;;;;;11.40;77.30;;;10.16;62.77;99537.25;5052194;28;19929;-86
2022/02/17 13:34:13;;;;;;;;;;;11.50;76.80;;;10.16;62.19;99540.00;5064389;28;19931;-85
2022/02/17 13:36:44;;;;;;;;;;;11.50;76.30;;;10.13;62.89;99545.84;5045757;28;20397;-85
2022/02/17 13:39:16;;;;;;;;;;;11.50;76.80;;;10.12;63.17;99541.44;5034751;28;19933;-86
2022/02/17 13:42:00;;;;;;;;;;;11.60;77.30;;;10.12;60.98;99530.56;5055036;28;19983;-86
2022/02/17 13:44:28;;;;;;;;;;;11.60;75.80;;;10.14;61.20;99560.28;5064741;28;19928;-86
2022/02/17 13:46:55;;;;;;;;;;;11.60;73.20;;;10.17;61.15;99555.28;5054928;28;20369;-85
2022/02/17 13:49:23;;;;;;;;;;;11.70;74.20;;;10.27;62.18;99546.72;5058684;28;20005;-85
2022/02/17 13:51:52;;;;;;;;;;;11.70;76.40;;;10.27;62.82;99548.59;5049568;28;19925;-86
2022/02/17 13:54:20;;;;;;;;;;;11.70;76.30;;;10.26;62.83;99557.78;5061467;28;19924;-85
2022/02/17 13:56:48;;;;;;;;;;;11.70;76.50;;;10.33;62.59;99566.84;5062773;28;19963;-86
2022/02/17 13:59:16;;;;;;;;;;;11.80;76.40;;;10.40;61.04;99575.03;5046818;28;19962;-86
2022/02/17 14:01:44;;;;;;;;;;;11.80;73.50;;;10.37;60.64;99574.38;5033354;28;20336;-86
2022/02/17 14:04:15;;;;;;;;;;;11.80;73.80;;;10.33;60.72;99586.69;5049485;28;19936;-85
2022/02/17 14:07:34;;;;;;;;;;;11.80;74.30;;;10.30;60.84;99592.56;5053249;28;19933;-86
2022/02/17 14:10:10;;;;;;;;;;;11.70;73.10;;;10.20;60.92;99607.56;5034943;28;20374;-85
2022/02/17 14:12:37;;;;;;;;;;;11.70;74.40;;;10.14;60.52;99604.59;5037820;28;19979;-84
2022/02/17 14:15:05;;;;;;;;;;;11.70;73.70;;;10.08;60.84;99610.88;5042998;28;19978;-86
2022/02/17 14:17:33;;;;;;;;;;;11.70;74.00;;;10.12;62.07;99628.44;5052848;28;20679;-86
2022/02/17 14:20:00;;;;;;;;;;;11.70;75.50;;;10.19;62.48;99628.47;5043546;28;19925;-86
2022/02/17 14:22:30;;;;;;;;;;;11.70;75.80;;;10.24;62.60;99620.53;5048138;28;20027;-85
2022/02/17 14:24:57;;;;;;;;;;;11.80;76.10;;;10.23;62.22;99628.91;5034307;28;20297;-86
2022/02/17 14:27:26;;;;;;;;;;;11.80;75.70;;;10.24;63.55;99625.13;5046570;28;21138;-86
2022/02/17 14:29:53;;;;;;;;;;;11.80;77.50;;;10.20;62.85;99623.88;5053337;28;19989;-85
2022/02/17 14:32:20;;;;;;;;;;;11.80;76.30;;;10.15;63.56;99621.78;5048745;28;19986;-86
2022/02/17 14:37:33;;;;;;;;;;;11.70;77.90;;;10.22;63.80;99635.38;5048884;28;19933;-86
2022/02/17 14:40:01;;;;;;;;;;;11.70;77.20;;;10.18;63.09;99627.66;5045261;28;20011;-86
2022/02/17 14:42:28;;;;;;;;;;;11.70;77.20;;;10.14;63.21;99636.41;5052593;28;20019;-85
2022/02/17 14:44:59;;;;;;;;;;;11.70;77.60;;;10.13;63.43;99654.59;5028311;28;19979;-88
2022/02/17 14:47:27;;;;;;;;;;;11.70;77.70;;;9.99;63.75;99639.28;5051551;28;20019;-90
2022/02/17 14:49:54;;;;;;;;;;;11.70;77.10;;;9.92;64.88;99665.59;5048780;28;19971;-86
2022/02/17 14:52:21;;;;;;;;;;;11.60;77.80;;;9.90;64.70;99676.66;5049851;28;20415;-86
2022/02/17 14:54:52;;;;;;;;;;;11.60;77.90;;;9.82;64.22;99662.41;5053604;28;19940;-87
2022/02/17 14:57:19;;;;;;;;;;;11.50;77.40;;;9.71;66.63;99689.09;5048273;28;19929;-87
2022/02/17 14:59:46;;;;;;;;;;;11.50;79.30;;;9.61;68.00;99696.75;5037443;28;20019;-87
2022/02/17 15:02:13;;;;;;;;;;;11.40;79.90;;;9.59;68.42;99677.94;5048049;28;20002;-87
2022/02/17 15:04:40;;;;;;;;;;;11.30;80.20;;;9.56;67.67;99699.25;5046232;28;19959;-87
2022/02/17 15:07:08;;;;;;;;;;;11.30;79.70;;;9.54;66.65;99676.88;5043220;28;19928;-86
2022/02/17 15:09:36;;;;;;;;;;;11.20;78.90;;;9.58;67.32;99708.84;5046302;28;19931;-87
2022/02/17 15:12:04;;;;;;;;;;;11.20;79.10;;;9.59;65.25;99710.56;5062183;28;19932;-86
2022/02/17 15:14:36;;;;;;;;;;;11.20;78.00;;;9.61;65.47;99712.22;5062735;28;20273;-86
2022/02/17 15:17:06;;;;;;;;;;;11.20;78.50;;;9.61;64.18;99726.63;5039578;28;19924;-86
2022/02/17 15:22:18;;;;;;;;;;;11.20;77.70;;;9.70;65.92;99720.00;5048967;28;19975;-85
2022/02/17 15:24:45;;;;;;;;;;;11.20;78.60;;;9.76;65.39;99719.22;5042958;28;20012;-86
2022/02/17 15:27:15;;;;;;;;;;;11.20;78.60;;;9.73;64.85;99733.22;5049592;28;19982;-85
2022/02/17 15:29:45;;;;;;;;;;;11.30;78.00;;;9.68;64.99;99746.53;5047172;28;19968;-86
2022/02/17 15:32:12;;;;;;;;;;;11.20;77.80;;;9.66;65.90;99745.91;5036534;28;20000;-86
2022/02/17 15:34:39;;;;;;;;;;;11.20;77.60;;;9.65;65.76;99752.34;5041789;28;19928;-85
2022/02/17 15:37:06;;;;;;;;;;;11.20;78.70;;;9.64;65.77;99766.16;5063366;28;19925;-85
2022/02/17 15:39:35;;;;;;;;;;;11.20;78.10;;;9.59;65.42;99758.59;5051543;28;19983;-85
2022/02/17 15:42:05;;;;;;;;;;;11.10;79.00;;;9.53;66.30;99792.81;5042894;28;20301;-87
2022/02/17 15:44:36;;;;;;;;;;;11.10;79.10;;;9.46;66.54;99796.50;5041520;28;20439;-88
2022/02/17 15:47:05;;;;;;;;;;;11.10;79.60;;;9.43;66.46;99797.75;5048050;28;20059;-86
2022/02/17 15:49:32;;;;;;;;;;;11.10;79.50;;;9.39;66.29;99810.88;5049179;28;20022;-86
2022/02/17 15:52:00;;;;;;;;;;;11.10;79.10;;;9.32;66.26;99801.81;5046241;28;19936;-93
2022/02/17 15:54:28;;;;;;;;;;;11.00;78.90;;;9.20;65.26;99814.22;5053256;28;19935;-89
2022/02/17 15:56:56;;;;;;;;;;;11.00;77.70;;;9.12;64.35;99808.91;5039166;28;20438;-87
2022/02/17 15:59:23;;;;;;;;;;;10.90;77.10;;;9.08;64.24;99813.03;5046138;28;19936;-89
2022/02/17 16:01:54;;;;;;;;;;;10.90;76.80;;;9.03;64.34;99823.66;5059638;28;19928;-86
2022/02/17 16:04:21;;;;;;;;;;;10.80;76.80;;;9.07;63.98;99836.63;5054778;28;19935;-86
2022/02/17 16:06:49;;;;;;;;;;;10.70;76.30;;;8.96;64.79;99834.41;5064295;28;19936;-85
2022/02/17 16:09:16;;;;;;;;;;;10.70;77.20;;;8.83;64.31;99845.94;5039076;28;19924;-86
2022/02/17 16:11:43;;;;;;;;;;;10.60;76.70;;;8.84;65.70;99846.81;5054754;28;19992;-86
2022/02/17 16:14:14;;;;;;;;;;;10.60;77.70;;;8.77;65.61;99844.00;5037505;28;19928;-86
2022/02/17 16:16:42;;;;;;;;;;;10.60;78.60;;;8.82;66.40;99866.00;5026610;28;20644;-88
2022/02/17 16:19:11;;;;;;;;;;;10.60;79.00;;;8.74;65.93;99868.81;5042559;28;20300;-86
2022/02/17 16:21:38;;;;;;;;;;;10.60;78.20;;;8.78;66.31;99867.41;5037895;28;19928;-85
2022/02/17 16:24:07;;;;;;;;;;;10.50;78.60;;;8.71;66.71;99867.31;5050383;28;19997;-85
2022/02/17 16:26:34;;;;;;;;;;;10.50;79.20;;;8.73;66.79;99864.41;5052327;28;19970;-87
2022/02/17 16:29:03;;;;;;;;;;;10.50;79.50;;;8.64;67.47;99857.41;5025720;28;20040;-86
2022/02/17 16:31:30;;;;;;;;;;;10.50;79.40;;;8.63;67.39;99874.72;5033163;28;19981;-86
2022/02/17 16:33:57;;;;;;;;;;;10.40;78.60;;;8.60;67.54;99882.19;5055251;28;19929;-87
2022/02/17 16:36:26;;;;;;;;;;;10.40;80.30;;;8.54;67.55;99885.63;5055204;28;19928;-86
2022/02/17 16:38:53;;;;;;;;;;;10.30;79.70;;;8.50;67.58;99884.34;5030983;28;20023;-86
2022/02/17 16:41:20;;;;;;;;;;;10.30;79.40;;;8.49;67.62;99888.09;5036634;28;20015;-86
2022/02/17 16:43:49;;;;;;;;;;;10.30;79.10;;;8.45;67.17;99902.19;5059350;28;19935;-88
2022/02/17 16:46:18;;;;;;;;;;;10.30;79.30;;;8.35;67.76;99900.56;5054571;28;19929;-87
2022/02/17 16:48:46;;;;;;;;;;;10.30;80.20;;;8.41;66.94;99915.25;5045812;28;19936;-88
2022/02/17 16:51:14;;;;;;;;;;;10.20;78.50;;;8.28;67.44;99913.19;5038362;28;20313;-88
2022/02/17 16:53:43;;;;;;;;;;;10.20;80.00;;;8.28;67.90;99917.75;5036472;28;20029;-88
2022/02/17 16:56:11;;;;;;;;;;;10.20;79.60;;;8.36;67.23;99923.09;5035489;28;19929;-90
2022/02/17 16:58:38;;;;;;;;;;;10.10;78.50;;;8.39;67.94;99937.09;5029599;28;19979;-90
2022/02/17 17:01:07;;;;;;;;;;;10.10;79.60;;;8.35;66.97;99938.50;5033779;28;20020;-91
2022/02/17 17:03:34;;;;;;;;;;;10.10;80.00;;;8.30;66.65;99943.66;5039597;28;20636;-90
2022/02/17 17:06:02;;;;;;;;;;;10.10;79.30;;;8.25;65.68;99939.81;5018436;28;20039;-92
2022/02/17 17:08:30;;;;;;;;;;;10.10;78.40;;;8.23;65.92;99935.41;5027723;28;19939;-90
2022/02/17 17:10:59;;;;;;;;;;;10.10;78.50;;;8.14;65.99;99954.66;5041307;28;19926;-91
2022/02/17 17:13:26;;;;;;;;;;;10.10;78.80;;;8.12;66.19;99962.94;5034329;28;19929;-92